Time;durP1;ratioP1;P1;durP2;ratioP2;P2;SDS_P1;SDS_P2;PMS_P1;PMS_P2;Temp;Humidity;BMP_temperature;BMP_pressure;BME280_temperature;BME280_humidity;BME280_pressure;Samples;Min_cycle;Max_cycle;Signal;HPM_P1;HPM_P2
2021/12/25 00:01:26;;;;;;;17.60;6.85;;;;;;;-11.16;60.67;97816.19;5073723;28;20029;-65
2021/12/25 00:03:54;;;;;;;20.45;8.32;;;;;;;-11.14;60.12;97813.59;5074461;28;20370;-64
2021/12/25 00:06:21;;;;;;;25.13;10.02;;;;;;;-11.18;60.13;97809.41;5074261;28;20406;-66
2021/12/25 00:08:47;;;;;;;25.65;10.38;;;;;;;-11.20;60.41;97806.84;5073842;28;20406;-66
2021/12/25 00:11:12;;;;;;;30.50;11.25;;;;;;;-11.31;60.79;97770.94;5073781;28;20032;-66
2021/12/25 00:13:39;;;;;;;23.38;9.18;;;;;;;-11.26;60.70;97776.81;5073114;28;20033;-66
2021/12/25 00:16:05;;;;;;;25.65;9.88;;;;;;;-11.20;60.79;97775.84;5073502;28;20036;-65
2021/12/25 00:18:31;;;;;;;20.55;7.82;;;;;;;-11.06;60.75;97782.38;5073823;28;20028;-67
2021/12/25 00:20:56;;;;;;;23.42;9.73;;;;;;;-11.20;60.32;97765.50;5106231;28;20029;-65
2021/12/25 00:23:22;;;;;;;25.45;10.95;;;;;;;-11.18;60.75;97753.38;5074136;28;20033;-65
2021/12/25 00:25:54;;;;;;;25.52;10.75;;;;;;;-11.24;61.03;97753.56;5073913;28;20025;-66
2021/12/25 00:36:14;;;;;;;18.42;8.30;;;;;;;-11.04;60.95;97714.25;5074037;28;20021;-65
2021/12/25 00:38:44;;;;;;;25.75;10.30;;;;;;;-11.11;61.21;97710.16;5073865;28;20029;-66
2021/12/25 00:41:15;;;;;;;23.77;9.27;;;;;;;-11.10;61.24;97715.25;5073430;28;20033;-67
2021/12/25 00:43:41;;;;;;;27.20;10.38;;;;;;;-11.12;61.45;97680.03;5073948;28;20063;-66
2021/12/25 00:46:07;;;;;;;18.65;6.90;;;;;;;-11.10;61.08;97673.06;5073879;28;20118;-66
2021/12/25 00:48:33;;;;;;;23.20;9.95;;;;;;;-11.08;61.46;97668.72;5073325;28;20048;-66
2021/12/25 00:50:58;;;;;;;24.73;9.80;;;;;;;-11.06;61.19;97658.34;5072961;28;20485;-66
2021/12/25 00:53:24;;;;;;;24.25;9.98;;;;;;;-11.06;61.19;97648.84;5073557;28;20503;-65
2021/12/25 00:55:49;;;;;;;23.08;9.85;;;;;;;-11.26;61.21;97615.81;5105659;28;20043;-66
2021/12/25 00:58:15;;;;;;;27.50;10.68;;;;;;;-11.12;61.45;97642.09;5073050;28;20516;-66
2021/12/25 01:00:41;;;;;;;25.05;9.63;;;;;;;-11.16;61.80;97648.25;5072727;28;20371;-67
2021/12/25 01:03:07;;;;;;;21.38;9.32;;;;;;;-11.17;62.09;97630.22;5073336;28;20058;-65
2021/12/25 01:05:32;;;;;;;26.38;9.68;;;;;;;-11.06;61.74;97666.09;5072796;28;20025;-65
2021/12/25 01:07:58;;;;;;;23.83;9.00;;;;;;;-11.02;61.61;97639.28;5072729;28;20036;-66
2021/12/25 01:10:24;;;;;;;21.60;7.43;;;;;;;-10.89;61.07;97616.50;5072387;28;20385;-66
2021/12/25 01:15:22;;;;;;;13.07;4.57;;;;;;;-10.89;61.43;97619.09;5072697;28;20044;-67
2021/12/25 01:18:11;;;;;;;26.40;10.75;;;;;;;-11.08;61.09;97582.59;5073033;28;20036;-66
2021/12/25 01:31:01;;;;;;;21.38;9.63;;;;;;;-10.87;61.55;97584.53;5072623;28;20028;-66
2021/12/25 01:49:33;;;;;;;24.83;9.75;;;;;;;-11.20;61.48;97463.22;5072401;28;20307;-66
2021/12/25 01:51:58;;;;;;;27.65;10.50;;;;;;;-10.60;60.86;97555.28;5071042;28;20040;-66
2021/12/25 01:54:24;;;;;;;26.02;9.82;;;;;;;-10.66;61.50;97556.31;5071805;28;20478;-66
2021/12/25 01:56:49;;;;;;;12.20;5.47;;;;;;;-10.50;61.07;97535.97;5071678;28;20028;-65
2021/12/25 01:59:16;;;;;;;23.92;9.77;;;;;;;-10.57;61.11;97521.56;5072108;28;20078;-66
2021/12/25 02:01:41;;;;;;;25.33;10.32;;;;;;;-10.63;61.69;97522.59;5072098;28;20063;-65
2021/12/25 02:04:07;;;;;;;24.98;10.02;;;;;;;-10.65;61.75;97514.03;5071694;28;20029;-65
2021/12/25 02:06:32;;;;;;;21.33;9.35;;;;;;;-10.67;62.00;97516.69;5071423;28;20377;-65
2021/12/25 02:08:58;;;;;;;20.17;9.85;;;;;;;-10.51;61.38;97494.66;5072138;28;20047;-66
2021/12/25 02:11:25;;;;;;;23.33;10.27;;;;;;;-10.58;61.67;97510.38;5071620;28;20035;-66
2021/12/25 02:13:50;;;;;;;28.33;11.35;;;;;;;-10.61;62.24;97492.38;5070186;28;20081;-65
2021/12/25 02:16:19;;;;;;;24.27;10.60;;;;;;;-10.49;61.74;97490.28;5071246;28;20033;-66
2021/12/25 02:21:23;;;;;;;26.02;11.27;;;;;;;-10.61;61.82;97466.53;5071632;28;20071;-65
2021/12/25 02:23:49;;;;;;;23.17;10.20;;;;;;;-10.59;62.26;97484.56;5071138;28;20028;-65
2021/12/25 02:26:17;;;;;;;28.15;11.15;;;;;;;-10.56;62.13;97467.22;5071203;28;20562;-66
2021/12/25 02:28:43;;;;;;;23.13;8.75;;;;;;;-10.65;62.25;97431.31;5071463;28;20032;-65
2021/12/25 02:31:11;;;;;;;24.63;10.65;;;;;;;-10.39;61.85;97445.06;5071923;28;20422;-66
2021/12/25 02:33:38;;;;;;;21.15;8.90;;;;;;;-10.35;61.41;97433.72;5071375;28;20029;-64
2021/12/25 02:36:05;;;;;;;27.05;11.63;;;;;;;-10.43;61.83;97431.44;5070922;28;20032;-65
2021/12/25 02:38:31;;;;;;;25.73;10.38;;;;;;;-10.38;61.83;97433.81;5071487;28;20028;-65
2021/12/25 02:40:57;;;;;;;27.35;11.75;;;;;;;-10.41;62.18;97423.59;5071402;28;20060;-66
2021/12/25 02:43:23;;;;;;;27.80;11.45;;;;;;;-10.37;62.19;97414.78;5070714;28;20104;-65
2021/12/25 02:45:48;;;;;;;27.73;11.48;;;;;;;-10.41;62.44;97415.84;5071306;28;20108;-65
2021/12/25 02:48:17;;;;;;;30.10;11.35;;;;;;;-10.40;62.48;97418.34;5073964;28;20040;-64
2021/12/25 02:50:43;;;;;;;26.25;9.93;;;;;;;-10.39;62.33;97406.25;5071473;28;20032;-65
2021/12/25 02:53:10;;;;;;;21.58;9.18;;;;;;;-10.37;62.47;97394.09;5070824;28;20499;-65
2021/12/25 02:55:38;;;;;;;23.17;9.43;;;;;;;-10.31;62.69;97400.81;5071049;28;20125;-65
2021/12/25 02:58:04;;;;;;;27.75;11.10;;;;;;;-10.26;62.19;97389.41;5071168;28;20043;-66
2021/12/25 03:00:36;;;;;;;29.13;11.68;;;;;;;-10.18;62.34;97380.50;5070845;28;20036;-66
2021/12/25 03:03:03;;;;;;;29.08;11.85;;;;;;;-10.14;61.91;97388.13;5070441;28;20108;-64
2021/12/25 03:05:29;;;;;;;25.05;10.90;;;;;;;-10.12;62.54;97382.91;5070469;28;20028;-66
2021/12/25 03:07:54;;;;;;;28.20;11.45;;;;;;;-10.07;62.26;97380.97;5070751;28;20032;-66
2021/12/25 03:10:20;;;;;;;25.90;10.77;;;;;;;-10.05;62.39;97402.47;5103253;28;20041;-66
2021/12/25 03:12:53;;;;;;;28.48;11.82;;;;;;;-10.07;61.90;97390.47;5070817;28;20086;-64
2021/12/25 03:15:41;;;;;;;33.00;11.20;;;;;;;-10.08;61.83;97374.13;5070848;28;20036;-66
2021/12/25 03:18:07;;;;;;;31.10;11.75;;;;;;;-10.05;61.88;97394.72;5070501;28;20093;-66
2021/12/25 03:20:33;;;;;;;28.60;12.05;;;;;;;-10.11;61.82;97384.59;5070941;28;20027;-66
2021/12/25 03:22:59;;;;;;;22.70;9.85;;;;;;;-10.11;62.09;97372.47;5070748;28;20039;-65
2021/12/25 03:25:25;;;;;;;18.35;8.05;;;;;;;-9.92;61.28;97366.63;5070282;28;20037;-65
2021/12/25 03:27:51;;;;;;;24.30;11.70;;;;;;;-10.10;61.73;97366.41;5070746;28;20463;-65
2021/12/25 03:30:17;;;;;;;25.15;10.30;;;;;;;-10.25;62.63;97365.22;5070725;28;20443;-65
2021/12/25 03:32:45;;;;;;;24.88;9.15;;;;;;;-10.18;62.39;97371.03;5070672;28;20056;-65
2021/12/25 03:35:11;;;;;;;26.38;10.77;;;;;;;-10.13;61.86;97344.94;5072636;28;20059;-65
2021/12/25 03:37:36;;;;;;;24.00;10.38;;;;;;;-10.10;61.51;97356.03;5074947;28;20113;-66
2021/12/25 03:40:03;;;;;;;21.58;10.45;;;;;;;-10.25;62.39;97336.75;5074575;28;20054;-66
2021/12/25 03:42:29;;;;;;;18.35;6.88;;;;;;;-10.08;61.95;97340.47;5074343;28;20060;-66
2021/12/25 03:44:54;;;;;;;26.63;10.25;;;;;;;-10.18;62.12;97342.56;5074413;28;20075;-66
2021/12/25 03:47:34;;;;;;;34.67;11.20;;;;;;;-10.17;62.39;97333.91;5074420;28;20132;-66
2021/12/25 03:58:12;;;;;;;17.92;8.20;;;;;;;-10.01;62.25;97317.75;5074440;28;20090;-67
2021/12/25 04:00:40;;;;;;;21.25;9.80;;;;;;;-10.33;62.77;97270.66;5073791;28;20052;-65
2021/12/25 04:03:09;;;;;;;22.05;9.95;;;;;;;-10.11;62.88;97318.13;5074107;28;20103;-65
2021/12/25 04:05:39;;;;;;;22.23;9.35;;;;;;;-10.03;62.21;97310.06;5074216;28;20028;-65
2021/12/25 04:08:10;;;;;;;28.35;11.60;;;;;;;-10.01;62.46;97303.09;5073949;28;20028;-65
2021/12/25 04:10:38;;;;;;;24.10;9.63;;;;;;;-10.14;62.37;97271.66;5072433;28;20059;-65
2021/12/25 04:13:07;;;;;;;23.75;10.10;;;;;;;-10.14;62.58;97265.63;5072666;28;20035;-66
2021/12/25 04:15:33;;;;;;;23.73;9.50;;;;;;;-10.02;62.78;97288.47;5074230;28;20117;-65
2021/12/25 04:17:58;;;;;;;26.98;10.45;;;;;;;-10.00;62.80;97278.06;5073809;28;20407;-67
2021/12/25 04:20:24;;;;;;;26.90;9.90;;;;;;;-9.92;62.90;97316.56;5073262;28;20028;-65
2021/12/25 04:22:57;;;;;;;19.83;8.63;;;;;;;-9.88;62.54;97262.03;5073756;28;20078;-66
2021/12/25 04:25:27;;;;;;;21.80;9.43;;;;;;;-9.90;63.00;97278.53;5073794;28;20547;-67
2021/12/25 04:27:54;;;;;;;19.10;10.43;;;;;;;-9.80;62.09;97253.97;5073537;28;20153;-66
2021/12/25 04:31:20;;;;;;;27.02;10.25;;;;;;;-9.89;62.33;97259.50;5073226;28;20067;-66
2021/12/25 04:50:07;;;;;;;18.20;7.57;;;;;;;-9.92;62.59;97239.78;5073060;28;20091;-65
2021/12/25 05:03:53;;;;;;;23.10;9.68;;;;;;;-9.74;62.07;97216.63;5072969;28;20056;-66
2021/12/25 05:06:22;;;;;;;22.63;9.20;;;;;;;-9.80;61.73;97217.72;5072634;28;20036;-64
2021/12/25 05:08:49;;;;;;;22.65;9.52;;;;;;;-9.88;62.20;97214.63;5073208;28;20115;-66
2021/12/25 05:11:15;;;;;;;22.92;8.63;;;;;;;-9.80;62.88;97238.44;5072819;28;20067;-65
2021/12/25 05:13:40;;;;;;;25.42;9.68;;;;;;;-9.76;62.73;97223.63;5072644;28;20072;-66
2021/12/25 05:16:06;;;;;;;21.27;9.43;;;;;;;-9.67;62.76;97211.13;5072877;28;20451;-66
2021/12/25 05:18:31;;;;;;;25.67;10.07;;;;;;;-9.73;62.77;97198.44;5072663;28;20035;-66
2021/12/25 05:20:57;;;;;;;20.98;9.18;;;;;;;-9.73;63.56;97197.59;5072458;28;20120;-66
2021/12/25 05:23:22;;;;;;;15.13;6.10;;;;;;;-9.64;62.57;97202.41;5072947;28;20020;-66
2021/12/25 05:25:49;;;;;;;17.88;9.55;;;;;;;-9.62;62.67;97210.13;5105495;28;20034;-66
2021/12/25 05:28:23;;;;;;;25.75;8.88;;;;;;;-9.63;63.20;97205.84;5072306;28;20029;-66
2021/12/25 05:30:49;;;;;;;26.70;10.57;;;;;;;-9.59;62.88;97187.50;5072754;28;20134;-66
2021/12/25 05:33:14;;;;;;;19.42;9.48;;;;;;;-9.61;63.18;97206.63;5073101;28;20107;-65
2021/12/25 05:35:40;;;;;;;20.83;8.90;;;;;;;-9.59;63.56;97179.72;5072064;28;20028;-65
2021/12/25 05:38:12;;;;;;;19.65;8.80;;;;;;;-9.44;62.47;97183.41;5072302;28;20020;-65
2021/12/25 05:40:38;;;;;;;25.80;9.45;;;;;;;-9.43;62.85;97186.88;5072263;28;20420;-65
2021/12/25 05:43:03;;;;;;;19.45;9.10;;;;;;;-9.43;63.22;97182.50;5071923;28;20074;-65
2021/12/25 05:45:29;;;;;;;15.20;6.43;;;;;;;-9.43;63.40;97174.75;5104346;28;20021;-65
2021/12/25 05:47:54;;;;;;;20.30;9.48;;;;;;;-9.40;63.73;97174.63;5071980;28;20044;-66
2021/12/25 05:50:20;;;;;;;21.92;10.23;;;;;;;-9.71;63.46;97116.34;5072829;28;20552;-66
2021/12/25 05:52:45;;;;;;;23.13;9.68;;;;;;;-9.31;63.54;97168.19;5072198;28;20505;-67
2021/12/25 05:55:11;;;;;;;24.17;9.50;;;;;;;-9.24;63.43;97177.41;5071563;28;20381;-66
2021/12/25 05:57:36;;;;;;;19.85;9.43;;;;;;;-9.32;63.71;97155.31;5071453;28;20115;-65
2021/12/25 06:00:04;;;;;;;18.98;9.43;;;;;;;-9.15;62.81;97157.16;5105025;28;20044;-65
2021/12/25 06:02:29;;;;;;;23.45;9.80;;;;;;;-9.16;62.99;97148.56;5071650;28;20029;-65
2021/12/25 06:04:55;;;;;;;21.48;9.95;;;;;;;-9.17;63.02;97148.63;5071542;28;20087;-64
2021/12/25 06:07:20;;;;;;;24.08;9.63;;;;;;;-9.20;63.37;97151.34;5071603;28;20084;-66
2021/12/25 06:09:46;;;;;;;21.63;10.00;;;;;;;-9.15;63.60;97149.38;5072237;28;20081;-64
2021/12/25 06:12:12;;;;;;;20.40;8.63;;;;;;;-9.07;62.93;97139.50;5072069;28;20035;-65
2021/12/25 06:14:37;;;;;;;17.98;8.65;;;;;;;-9.12;63.20;97144.91;5071363;28;20539;-65
2021/12/25 06:17:03;;;;;;;22.70;9.55;;;;;;;-9.09;62.94;97133.56;5071486;28;20035;-66
2021/12/25 06:19:28;;;;;;;24.98;10.23;;;;;;;-9.05;63.28;97131.69;5104838;28;20085;-65
2021/12/25 06:21:53;;;;;;;19.83;9.13;;;;;;;-9.06;63.49;97132.59;5072047;28;20028;-65
2021/12/25 06:24:20;;;;;;;20.38;8.25;;;;;;;-9.04;63.55;97133.34;5071373;28;20146;-65
2021/12/25 06:26:45;;;;;;;21.27;9.82;;;;;;;-8.99;63.44;97121.88;5071284;28;20056;-65
2021/12/25 06:29:14;;;;;;;24.73;9.45;;;;;;;-8.93;63.71;97131.09;5071159;28;20130;-67
2021/12/25 06:31:39;;;;;;;23.75;9.75;;;;;;;-8.92;63.83;97104.31;5071374;28;20032;-67
2021/12/25 06:34:06;;;;;;;22.33;9.68;;;;;;;-8.76;63.22;97126.91;5070797;28;20373;-66
2021/12/25 06:36:32;;;;;;;22.05;10.05;;;;;;;-8.84;63.26;97107.38;5070889;28;20036;-67
2021/12/25 06:38:57;;;;;;;20.90;9.48;;;;;;;-8.74;63.60;97119.91;5071404;28;20043;-65
2021/12/25 06:41:23;;;;;;;22.35;9.20;;;;;;;-8.72;63.37;97102.50;5070150;28;20051;-64
2021/12/25 06:43:48;;;;;;;21.27;9.50;;;;;;;-8.64;63.39;97113.41;5103121;28;20073;-66
2021/12/25 06:46:15;;;;;;;22.35;9.45;;;;;;;-8.58;63.24;97109.66;5069048;28;20053;-64
2021/12/25 06:48:41;;;;;;;23.38;10.32;;;;;;;-8.55;63.50;97104.34;5070535;28;20511;-66
2021/12/25 06:51:07;;;;;;;24.40;10.02;;;;;;;-8.65;63.63;97067.63;5070659;28;20389;-63
2021/12/25 06:53:33;;;;;;;23.75;10.45;;;;;;;-8.40;63.57;97107.94;5070733;28;20036;-68
2021/12/25 06:55:58;;;;;;;17.88;8.90;;;;;;;-8.26;63.46;97108.09;5070603;28;20421;-67
2021/12/25 06:58:24;;;;;;;22.40;9.80;;;;;;;-8.24;63.49;97098.47;5071017;28;20070;-66
2021/12/25 07:00:49;;;;;;;23.63;9.23;;;;;;;-8.22;63.18;97082.84;5070313;28;20032;-66
2021/12/25 07:03:15;;;;;;;26.83;9.77;;;;;;;-8.12;63.63;97088.41;5070473;28;20025;-67
2021/12/25 07:05:40;;;;;;;15.38;6.72;;;;;;;-8.02;63.28;97099.19;5070404;28;20032;-67
2021/12/25 07:08:06;;;;;;;18.38;9.02;;;;;;;-8.12;63.19;97059.84;5070352;28;20056;-67
2021/12/25 07:10:31;;;;;;;24.10;10.25;;;;;;;-7.89;63.28;97084.66;5068332;28;20421;-67
2021/12/25 07:12:56;;;;;;;24.20;9.57;;;;;;;-7.88;63.74;97078.56;5071221;28;20033;-66
2021/12/25 07:15:22;;;;;;;23.13;10.00;;;;;;;-7.81;63.66;97079.94;5070067;28;20468;-66
2021/12/25 07:17:47;;;;;;;22.23;10.27;;;;;;;-7.83;63.84;97068.78;5069952;28;20458;-66
2021/12/25 07:20:13;;;;;;;20.85;8.50;;;;;;;-7.57;63.57;97081.34;5070779;28;20128;-68
2021/12/25 07:22:39;;;;;;;21.55;9.57;;;;;;;-7.75;62.89;97037.19;5062017;28;20384;-69
2021/12/25 07:25:06;;;;;;;19.92;9.85;;;;;;;-7.56;63.42;97067.44;5068273;28;20615;-69
2021/12/25 07:27:32;;;;;;;21.90;9.88;;;;;;;-7.57;63.35;97044.97;5068299;28;20111;-63
2021/12/25 07:29:58;;;;;;;21.67;10.32;;;;;;;-7.48;63.17;97052.28;5069188;28;20112;-65
2021/12/25 07:32:24;;;;;;;21.85;9.80;;;;;;;-7.46;63.59;97058.25;5068972;28;20033;-63
2021/12/25 07:34:50;;;;;;;22.90;9.80;;;;;;;-7.28;63.71;97073.78;5069287;28;20611;-66
2021/12/25 07:37:17;;;;;;;21.80;9.45;;;;;;;-7.19;62.61;97055.13;5069600;28;20040;-64
2021/12/25 07:39:43;;;;;;;22.13;9.80;;;;;;;-7.26;63.36;97066.75;5066860;28;20486;-73
2021/12/25 07:42:10;;;;;;;22.67;9.77;;;;;;;-7.22;63.13;97053.50;5068405;28;20031;-71
2021/12/25 07:44:36;;;;;;;23.05;9.82;;;;;;;-7.13;63.21;97067.78;5068501;28;20021;-71
2021/12/25 07:47:04;;;;;;;19.77;10.07;;;;;;;-7.10;62.70;97059.00;5068473;28;20053;-69
2021/12/25 07:49:31;;;;;;;25.27;9.98;;;;;;;-7.02;62.88;97058.56;5068092;28;20465;-69
2021/12/25 07:51:56;;;;;;;20.98;9.65;;;;;;;-6.99;62.56;97061.00;5068265;28;20033;-63
2021/12/25 07:54:22;;;;;;;21.48;9.55;;;;;;;-6.93;62.42;97063.28;5069389;28;20036;-67
2021/12/25 07:56:47;;;;;;;22.27;10.27;;;;;;;-6.94;62.61;97051.19;5070450;28;20416;-70
2021/12/25 07:59:13;;;;;;;25.52;10.32;;;;;;;-7.04;62.77;97022.25;5069875;28;20032;-65
2021/12/25 08:01:39;;;;;;;19.77;8.80;;;;;;;-6.79;62.44;97049.50;5061258;28;20094;-65
2021/12/25 08:04:05;;;;;;;21.08;9.55;;;;;;;-6.79;62.61;97042.53;5067969;28;20036;-64
2021/12/25 08:06:31;;;;;;;22.83;10.00;;;;;;;-6.75;62.52;97052.75;5068462;28;20037;-64
2021/12/25 08:09:01;;;;;;;22.65;10.13;;;;;;;-6.73;62.54;97037.94;5069744;28;20032;-71
2021/12/25 08:11:28;;;;;;;27.20;10.60;;;;;;;-6.68;62.79;97033.31;5069626;28;20036;-66
2021/12/25 08:13:54;;;;;;;22.23;10.60;;;;;;;-6.67;62.56;97027.19;5069715;28;20090;-66
2021/12/25 08:16:19;;;;;;;27.45;10.82;;;;;;;-6.66;62.54;97018.44;5069823;28;20028;-67
2021/12/25 08:18:45;;;;;;;24.63;11.40;;;;;;;-6.44;62.74;97036.28;5069503;28;20031;-68
2021/12/25 08:21:10;;;;;;;23.33;10.43;;;;;;;-6.41;62.16;97038.72;5071235;28;20024;-66
2021/12/25 08:23:37;;;;;;;23.55;9.85;;;;;;;-6.32;62.14;97034.75;5073634;28;20027;-67
2021/12/25 08:26:04;;;;;;;22.63;10.60;;;;;;;-6.29;62.09;97034.56;5073349;28;20032;-66
2021/12/25 08:28:29;;;;;;;23.60;11.45;;;;;;;-6.17;62.17;97042.63;5073494;28;20028;-67
2021/12/25 08:30:55;;;;;;;20.77;10.65;;;;;;;-6.09;61.65;97040.41;5072825;28;20145;-66
2021/12/25 08:33:20;;;;;;;28.33;13.00;;;;;;;-6.03;61.94;97034.00;5071876;28;20024;-67
2021/12/25 08:35:46;;;;;;;29.80;12.05;;;;;;;-5.91;62.14;97038.44;5071769;28;20124;-69
2021/12/25 08:38:13;;;;;;;25.70;11.73;;;;;;;-5.81;61.91;97013.53;5073076;28;20068;-69
2021/12/25 08:40:40;;;;;;;26.95;12.20;;;;;;;-5.58;61.31;97039.16;5072763;28;20036;-70
2021/12/25 08:43:05;;;;;;;26.90;11.60;;;;;;;-5.69;61.55;96998.94;5066404;28;20505;-73
2021/12/25 08:45:49;;;;;;;23.25;11.45;;;;;;;-5.46;61.13;97030.59;5065678;28;20028;-66
2021/12/25 08:48:21;;;;;;;26.30;11.23;;;;;;;-5.38;61.22;97033.56;5070131;28;20036;-69
2021/12/25 08:50:52;;;;;;;21.08;10.60;;;;;;;-5.26;61.34;97034.59;5052181;28;20045;-71
2021/12/25 08:53:19;;;;;;;27.02;11.88;;;;;;;-5.22;61.15;97035.25;5051442;28;20487;-72
2021/12/25 08:55:46;;;;;;;22.95;11.18;;;;;;;-5.20;61.27;97023.75;5051946;28;20048;-73
2021/12/25 08:58:12;;;;;;;25.35;11.00;;;;;;;-5.12;61.05;97036.34;5052459;28;20033;-74
2021/12/25 09:00:37;;;;;;;22.45;10.77;;;;;;;-5.04;60.81;97022.81;5055737;28;20021;-71
2021/12/25 09:03:03;;;;;;;20.77;11.32;;;;;;;-5.01;60.67;97021.81;5072365;28;20033;-71
2021/12/25 09:05:28;;;;;;;25.98;11.98;;;;;;;-4.91;60.02;97020.28;5071252;28;20028;-71
2021/12/25 09:07:53;;;;;;;22.27;10.50;;;;;;;-4.86;60.17;97031.25;5072682;28;20032;-74
2021/12/25 09:10:19;;;;;;;19.60;9.90;;;;;;;-4.84;60.13;97033.78;5070910;28;20338;-74
2021/12/25 09:12:46;;;;;;;21.75;10.55;;;;;;;-4.87;60.46;97023.56;5070929;28;20074;-70
2021/12/25 09:15:12;;;;;;;25.80;11.35;;;;;;;-4.93;60.59;97019.53;5072652;28;20064;-71
2021/12/25 09:17:39;;;;;;;21.58;10.55;;;;;;;-4.92;60.04;97022.06;5072304;28;20033;-69
2021/12/25 09:20:06;;;;;;;21.23;9.90;;;;;;;-4.86;59.81;97026.03;5071913;28;20040;-69
2021/12/25 09:22:32;;;;;;;23.73;11.30;;;;;;;-4.87;59.97;97019.16;5072627;28;20470;-73
2021/12/25 09:24:57;;;;;;;20.52;10.75;;;;;;;-4.85;59.88;97032.13;5072311;28;20036;-74
2021/12/25 09:27:23;;;;;;;20.42;10.40;;;;;;;-4.95;59.67;97022.25;5071145;28;20051;-70
2021/12/25 09:29:48;;;;;;;26.25;11.57;;;;;;;-4.86;60.13;97041.72;5069999;28;20037;-74
2021/12/25 09:32:14;;;;;;;21.73;10.75;;;;;;;-4.83;60.08;97038.91;5071219;28;20025;-66
2021/12/25 09:34:40;;;;;;;24.50;11.52;;;;;;;-4.74;59.85;97039.28;5071718;28;20039;-63
2021/12/25 09:37:06;;;;;;;26.20;11.95;;;;;;;-4.67;59.83;97057.06;5070817;28;20081;-65
2021/12/25 09:39:32;;;;;;;26.95;11.75;;;;;;;-4.64;59.39;97048.19;5071955;28;20028;-66
2021/12/25 09:41:58;;;;;;;26.35;12.48;;;;;;;-4.65;59.56;97054.34;5065060;28;20087;-66
2021/12/25 09:44:23;;;;;;;23.23;11.73;;;;;;;-4.68;59.67;97052.78;5069421;28;20028;-67
2021/12/25 09:46:50;;;;;;;24.73;11.77;;;;;;;-4.71;59.45;97054.75;5070465;28;20481;-66
2021/12/25 09:49:15;;;;;;;22.45;11.93;;;;;;;-4.79;59.91;97053.47;5070651;28;20032;-62
2021/12/25 09:51:41;;;;;;;28.05;11.82;;;;;;;-4.83;59.77;97066.78;5071572;28;20113;-63
2021/12/25 09:54:10;;;;;;;25.98;11.43;;;;;;;-4.93;60.04;97054.31;5070878;28;20454;-64
2021/12/25 09:56:40;;;;;;;21.85;10.98;;;;;;;-4.88;59.98;97080.13;5069213;28;20112;-66
2021/12/25 09:59:07;;;;;;;21.88;11.45;;;;;;;-4.88;60.23;97076.69;5071339;28;20032;-64
2021/12/25 10:01:45;;;;;;;22.17;11.27;;;;;;;-4.83;60.67;97082.44;5071855;28;20027;-66
2021/12/25 10:04:29;;;;;;;30.00;11.48;;;;;;;-4.83;60.41;97082.44;5071117;28;20122;-65
2021/12/25 10:06:56;;;;;;;19.05;10.57;;;;;;;-4.76;60.60;97092.41;5070983;28;20029;-67
2021/12/25 10:09:26;;;;;;;26.05;11.30;;;;;;;-4.88;60.18;97054.00;5068394;28;20029;-66
2021/12/25 10:12:08;;;;;;;29.75;11.60;;;;;;;-4.50;60.04;97082.09;5068341;28;20032;-73
2021/12/25 10:14:38;;;;;;;21.42;10.65;;;;;;;-4.36;59.55;97082.97;5069045;28;20033;-70
2021/12/25 10:17:19;;;;;;;19.45;10.90;;;;;;;-4.26;59.33;97096.28;5071080;28;20016;-66
2021/12/25 10:20:15;;;;;;;22.90;10.73;;;;;;;-4.26;59.33;97102.38;5071593;28;20032;-66
2021/12/25 10:23:08;;;;;;;20.52;10.13;;;;;;;-4.22;59.52;97101.22;5070559;28;20039;-70
2021/12/25 10:25:45;;;;;;;20.55;10.13;;;;;;;-4.27;59.48;97110.28;5069795;28;20032;-66
2021/12/25 10:28:15;;;;;;;19.75;9.40;;;;;;;-4.59;58.81;97079.22;5070908;28;20063;-68
2021/12/25 10:31:08;;;;;;;25.08;10.05;;;;;;;-4.40;59.34;97123.28;5071273;28;20025;-64
2021/12/25 10:33:36;;;;;;;20.10;9.55;;;;;;;-4.48;59.10;97124.63;5066588;28;20048;-65
2021/12/25 10:36:27;;;;;;;25.63;9.85;;;;;;;-4.43;59.63;97128.72;5070547;28;20106;-65
2021/12/25 10:39:08;;;;;;;19.63;9.35;;;;;;;-4.45;59.23;97133.19;5070087;28;20063;-65
2021/12/25 10:41:37;;;;;;;17.95;9.25;;;;;;;-4.53;59.44;97141.50;5070295;28;20462;-66
2021/12/25 10:44:19;;;;;;;18.48;9.63;;;;;;;-4.55;59.32;97146.84;5070748;28;20024;-66
2021/12/25 10:46:51;;;;;;;20.15;9.85;;;;;;;-4.86;59.13;97120.00;5064831;28;20443;-65
2021/12/25 10:49:18;;;;;;;17.95;9.65;;;;;;;-4.82;59.50;97147.63;5068461;28;20047;-65
2021/12/25 10:51:44;;;;;;;18.90;9.00;;;;;;;-5.15;59.52;97093.09;5068482;28;20040;-66
2021/12/25 10:54:12;;;;;;;18.65;8.02;;;;;;;-4.87;58.94;97165.31;5069247;28;20028;-66
2021/12/25 10:56:40;;;;;;;16.20;8.52;;;;;;;-4.98;59.39;97147.69;5068868;28;20139;-64
2021/12/25 10:59:10;;;;;;;19.30;8.88;;;;;;;-5.24;58.99;97125.81;5060397;28;20080;-64
2021/12/25 11:01:38;;;;;;;20.00;9.48;;;;;;;-5.10;59.25;97170.13;5052013;28;20124;-63
2021/12/25 11:04:04;;;;;;;15.70;7.95;;;;;;;-5.29;59.16;97165.19;5069826;28;20093;-64
2021/12/25 11:06:29;;;;;;;16.80;8.45;;;;;;;-5.39;59.60;97177.09;5068227;28;20210;-63
2021/12/25 11:08:58;;;;;;;14.23;7.32;;;;;;;-5.48;60.17;97175.88;5069511;28;20443;-69
2021/12/25 11:11:23;;;;;;;16.73;7.45;;;;;;;-5.55;59.78;97180.59;5070478;28;20162;-68
2021/12/25 11:13:52;;;;;;;17.30;7.45;;;;;;;-5.66;59.83;97191.63;5069410;28;20116;-65
2021/12/25 11:16:27;;;;;;;15.85;7.00;;;;;;;-5.68;59.97;97184.81;5069354;28;20040;-65
2021/12/25 11:19:16;;;;;;;13.13;6.40;;;;;;;-5.70;59.96;97197.09;5070360;28;20465;-64
2021/12/25 11:21:46;;;;;;;11.38;6.10;;;;;;;-5.72;60.04;97205.03;5069081;28;20037;-65
2021/12/25 11:24:17;;;;;;;12.45;6.45;;;;;;;-5.69;59.62;97214.41;5067036;28;20036;-66
2021/12/25 11:26:46;;;;;;;16.50;7.05;;;;;;;-5.64;59.63;97218.44;5067218;28;20036;-64
2021/12/25 11:29:14;;;;;;;13.02;6.70;;;;;;;-5.57;59.37;97226.78;5069240;28;20036;-65
2021/12/25 11:31:42;;;;;;;13.05;6.32;;;;;;;-5.58;59.37;97226.84;5069750;28;20025;-66
2021/12/25 11:34:08;;;;;;;13.75;6.38;;;;;;;-5.51;59.30;97236.00;5068445;28;20078;-65
2021/12/25 11:36:38;;;;;;;12.75;6.57;;;;;;;-5.57;59.34;97231.97;5070582;28;20031;-65
2021/12/25 11:39:05;;;;;;;11.70;5.97;;;;;;;-5.57;59.66;97242.41;5070023;28;20115;-63
2021/12/25 11:41:32;;;;;;;14.15;6.93;;;;;;;-5.64;59.45;97239.31;5069385;28;20025;-66
2021/12/25 11:43:57;;;;;;;11.88;5.93;;;;;;;-5.68;59.15;97256.06;5069089;28;20119;-67
2021/12/25 11:46:40;;;;;;;12.38;6.00;;;;;;;-5.78;59.56;97260.09;5069078;28;20116;-66
2021/12/25 11:49:12;;;;;;;10.55;4.80;;;;;;;-5.89;60.05;97278.09;5069211;28;20036;-65
2021/12/25 11:51:40;;;;;;;10.18;5.47;;;;;;;-6.09;59.97;97280.91;5067735;28;20466;-62
2021/12/25 11:54:43;;;;;;;10.40;4.95;;;;;;;-6.14;60.86;97282.91;5068325;28;20044;-64
2021/12/25 11:59:53;;;;;;;11.93;5.07;;;;;;;-6.30;60.61;97282.03;5072854;28;20140;-64
2021/12/25 12:02:38;;;;;;;;;;;;;;;-6.07;60.86;97304.25;5066392;28;20040;-62
2021/12/25 12:05:22;;;;;;;6.43;3.38;;;;;;;-6.21;60.28;97302.38;5072978;28;20007;-64
2021/12/25 12:08:04;;;;;;;7.93;3.60;;;;;;;-6.32;60.29;97313.34;5073259;28;20036;-65
2021/12/25 12:10:59;;;;;;;7.22;3.08;;;;;;;-6.44;60.67;97321.81;5067344;28;20036;-65
2021/12/25 12:13:26;;;;;;;6.07;2.53;;;;;;;-6.53;60.28;97329.16;5064098;28;20102;-64
2021/12/25 12:15:58;;;;;;;9.75;2.97;;;;;;;-6.67;60.70;97326.44;5072663;28;20044;-64
2021/12/25 12:18:23;;;;;;;9.73;2.97;;;;;;;-6.76;60.68;97338.16;5072444;28;20020;-65
2021/12/25 12:20:49;;;;;;;10.85;3.03;;;;;;;-6.78;60.75;97334.81;5072798;28;20592;-64
2021/12/25 12:26:45;;;;;;;6.22;3.08;;;;;;;-6.45;60.70;97356.59;5066146;28;20025;-65
2021/12/25 12:29:12;;;;;;;6.35;2.92;;;;;;;-6.74;60.44;97312.09;5063398;28;20036;-65
2021/12/25 12:31:46;;;;;;;8.65;4.00;;;;;;;-6.44;60.98;97384.31;5072493;28;20371;-64
2021/12/25 12:34:29;;;;;;;7.93;3.33;;;;;;;-6.40;61.57;97378.03;5070444;28;20024;-65
2021/12/25 12:37:13;;;;;;;6.60;3.55;;;;;;;-6.36;61.45;97376.94;5071665;28;20109;-63
2021/12/25 12:39:55;;;;;;;8.07;3.10;;;;;;;-6.36;61.00;97380.41;5071126;28;20059;-66
2021/12/25 12:42:46;;;;;;;6.90;3.70;;;;;;;-6.29;60.85;97385.28;5061603;28;20085;-64
2021/12/25 12:45:14;;;;;;;7.75;3.25;;;;;;;-6.39;61.47;97398.78;5053395;28;20103;-67
2021/12/25 12:47:40;;;;;;;6.57;3.05;;;;;;;-6.58;61.15;97372.00;5068191;28;20053;-66